Time;durP1;ratioP1;P1;durP2;ratioP2;P2;SDS_P1;SDS_P2;PMS_P1;PMS_P2;Temp;Humidity;BMP_temperature;BMP_pressure;BME280_temperature;BME280_humidity;BME280_pressure;Samples;Min_cycle;Max_cycle;Signal;HPM_P1;HPM_P2
2023/11/26 00:00:19;;;;;;;11.63;6.40;;;;;;;;;;5030850;28;20217;-68
2023/11/26 00:02:44;;;;;;;16.13;6.33;;;;;;;;;;5020869;28;20231;-68
2023/11/26 00:05:10;;;;;;;12.83;6.80;;;;;;;;;;5022006;28;20285;-68
2023/11/26 00:07:36;;;;;;;12.73;7.40;;;;;;;;;;5035087;28;20198;-68
2023/11/26 00:10:02;;;;;;;16.37;5.97;;;;;;;;;;5030302;28;20317;-68
2023/11/26 00:12:27;;;;;;;14.80;6.73;;;;;;;;;;5029135;28;20256;-68
2023/11/26 00:14:53;;;;;;;11.80;5.07;;;;;;;;;;5008681;28;20187;-68
2023/11/26 00:17:22;;;;;;;12.37;6.03;;;;;;;;;;5016611;28;20604;-68
2023/11/26 00:19:49;;;;;;;12.13;5.87;;;;;;;;;;5013352;28;20250;-68
2023/11/26 00:22:14;;;;;;;15.43;5.90;;;;;;;;;;5021736;28;20288;-68
2023/11/26 00:24:40;;;;;;;11.77;5.80;;;;;;;;;;5022478;28;20597;-68
2023/11/26 00:27:05;;;;;;;9.57;4.67;;;;;;;;;;5028050;28;20182;-68
2023/11/26 00:29:40;;;;;;;10.27;4.97;;;;;;;;;;5017625;28;20251;-68
2023/11/26 00:32:06;;;;;;;10.50;4.50;;;;;;;;;;5027291;28;20322;-68
2023/11/26 00:34:31;;;;;;;12.07;4.67;;;;;;;;;;5029599;28;20198;-68
2023/11/26 00:36:57;;;;;;;9.87;4.27;;;;;;;;;;5030117;28;20599;-69
2023/11/26 00:39:24;;;;;;;14.37;5.27;;;;;;;;;;5030070;28;20232;-68
2023/11/26 00:41:49;;;;;;;17.57;5.30;;;;;;;;;;5031481;28;20194;-68
2023/11/26 00:44:14;;;;;;;12.57;3.83;;;;;;;;;;5035308;28;20266;-68
2023/11/26 00:46:40;;;;;;;13.00;4.47;;;;;;;;;;5025267;28;20523;-68
2023/11/26 00:49:06;;;;;;;10.93;4.03;;;;;;;;;;5017020;28;20523;-68
2023/11/26 00:51:32;;;;;;;8.57;3.17;;;;;;;;;;5022634;28;20197;-68
2023/11/26 00:53:57;;;;;;;7.60;3.47;;;;;;;;;;5019999;28;20193;-68
2023/11/26 00:56:23;;;;;;;7.27;3.30;;;;;;;;;;5039213;28;20247;-68
2023/11/26 00:58:48;;;;;;;10.53;3.50;;;;;;;;;;5029265;28;20638;-68
2023/11/26 01:01:14;;;;;;;8.83;3.50;;;;;;;;;;5018484;28;20218;-68
2023/11/26 01:03:40;;;;;;;6.23;3.10;;;;;;;;;;5026985;28;20240;-68
2023/11/26 01:06:05;;;;;;;11.50;3.17;;;;;;;;;;5014485;28;20323;-68
2023/11/26 01:08:31;;;;;;;10.63;3.17;;;;;;;;;;5037498;28;20193;-68
2023/11/26 01:10:57;;;;;;;6.90;3.33;;;;;;;;;;5026914;28;20263;-68
2023/11/26 01:13:22;;;;;;;14.83;3.93;;;;;;;;;;5026481;28;20612;-68
2023/11/26 01:15:47;;;;;;;10.67;3.33;;;;;;;;;;5033502;28;20198;-68
2023/11/26 01:18:13;;;;;;;10.83;3.40;;;;;;;;;;5027431;28;20228;-68
2023/11/26 01:20:38;;;;;;;8.97;3.87;;;;;;;;;;5013205;28;20577;-68
2023/11/26 01:23:04;;;;;;;10.47;3.30;;;;;;;;;;5029871;28;20197;-69
2023/11/26 01:25:29;;;;;;;12.13;3.80;;;;;;;;;;5032978;28;20188;-68
2023/11/26 01:27:54;;;;;;;9.77;3.50;;;;;;;;;;5047630;28;20217;-68
2023/11/26 01:30:21;;;;;;;8.30;3.50;;;;;;;;;;5027776;28;20998;-68
2023/11/26 01:32:46;;;;;;;10.40;3.60;;;;;;;;;;5031090;28;20198;-68
2023/11/26 01:35:12;;;;;;;9.77;3.97;;;;;;;;;;5044845;28;20281;-68
2023/11/26 01:37:37;;;;;;;9.23;3.50;;;;;;;;;;5026215;28;20322;-69
2023/11/26 01:40:05;;;;;;;5.53;3.33;;;;;;;;;;5029100;28;20225;-69
2023/11/26 01:42:30;;;;;;;8.03;3.50;;;;;;;;;;5043978;28;20205;-69
2023/11/26 01:44:56;;;;;;;7.77;3.40;;;;;;;;;;5032747;28;20580;-69
2023/11/26 01:47:22;;;;;;;7.70;3.23;;;;;;;;;;5027819;28;20303;-69
2023/11/26 01:49:47;;;;;;;9.23;3.63;;;;;;;;;;5038783;28;20200;-69
2023/11/26 01:52:16;;;;;;;7.70;3.50;;;;;;;;;;5034092;28;20182;-69
2023/11/26 01:54:42;;;;;;;9.60;3.80;;;;;;;;;;5031166;28;20198;-69
2023/11/26 01:57:10;;;;;;;7.87;3.60;;;;;;;;;;5033709;28;20268;-69
2023/11/26 01:59:35;;;;;;;8.97;3.97;;;;;;;;;;5028518;28;20214;-69
2023/11/26 02:02:01;;;;;;;8.40;3.63;;;;;;;;;;5037962;28;20589;-69
2023/11/26 02:04:26;;;;;;;8.87;3.73;;;;;;;;;;5041350;28;20289;-69
2023/11/26 02:06:55;;;;;;;7.30;3.97;;;;;;;;;;5032073;28;20197;-69
2023/11/26 02:09:22;;;;;;;4.90;3.50;;;;;;;;;;5036163;28;20217;-69
2023/11/26 02:11:47;;;;;;;7.07;3.70;;;;;;;;;;5037362;28;20565;-69
2023/11/26 02:14:13;;;;;;;9.87;4.50;;;;;;;;;;5037763;28;20200;-69
2023/11/26 02:16:39;;;;;;;9.70;3.73;;;;;;;;;;5037701;28;20190;-69
2023/11/26 02:19:31;;;;;;;13.97;4.07;;;;;;;;;;5035896;28;20824;-69
2023/11/26 02:21:56;;;;;;;14.90;3.97;;;;;;;;;;5040353;28;20235;-69
2023/11/26 02:24:26;;;;;;;9.87;4.03;;;;;;;;;;5039513;28;20189;-69
2023/11/26 02:26:52;;;;;;;10.37;4.00;;;;;;;;;;5039974;28;20657;-69
2023/11/26 02:29:18;;;;;;;8.07;3.93;;;;;;;;;;5037082;28;20258;-69
2023/11/26 02:31:43;;;;;;;9.33;4.53;;;;;;;;;;5043371;28;20197;-68
2023/11/26 02:34:08;;;;;;;9.83;4.13;;;;;;;;;;5029851;28;20202;-68
2023/11/26 02:36:34;;;;;;;14.73;5.10;;;;;;;;;;5042368;28;20550;-69
2023/11/26 02:38:59;;;;;;;12.73;5.27;;;;;;;;;;5029847;28;20396;-68
2023/11/26 02:41:25;;;;;;;15.23;5.67;;;;;;;;;;5029765;28;20194;-69
2023/11/26 02:43:51;;;;;;;14.97;5.67;;;;;;;;;;5038408;28;20197;-68
2023/11/26 02:46:16;;;;;;;20.47;5.43;;;;;;;;;;5025712;28;20198;-69
2023/11/26 02:48:41;;;;;;;15.47;5.77;;;;;;;;;;5035336;28;20396;-69
2023/11/26 02:51:07;;;;;;;13.17;5.40;;;;;;;;;;5023023;28;20561;-69
2023/11/26 02:53:33;;;;;;;15.77;5.97;;;;;;;;;;5027102;28;20240;-69
2023/11/26 02:55:58;;;;;;;15.40;5.60;;;;;;;;;;5027128;28;20194;-69
2023/11/26 02:58:24;;;;;;;13.87;5.90;;;;;;;;;;5029940;28;20203;-68
2023/11/26 03:00:49;;;;;;;16.40;6.47;;;;;;;;;;5031445;28;20613;-69
2023/11/26 03:03:14;;;;;;;11.50;6.30;;;;;;;;;;5028608;28;20504;-69
2023/11/26 03:05:40;;;;;;;16.67;6.70;;;;;;;;;;5024952;28;20186;-69
2023/11/26 03:08:21;;;;;;;16.43;6.20;;;;;;;;;;5025332;28;20215;-69
2023/11/26 03:13:34;;;;;;;14.40;5.43;;;;;;;;;;5017078;28;20197;-69
2023/11/26 03:16:00;;;;;;;13.87;5.80;;;;;;;;;;5021514;28;20199;-69
2023/11/26 03:18:25;;;;;;;17.10;6.53;;;;;;;;;;5024645;28;20225;-69
2023/11/26 03:20:55;;;;;;;14.53;6.77;;;;;;;;;;5030095;28;20262;-70
2023/11/26 03:23:24;;;;;;;17.63;6.67;;;;;;;;;;5030200;28;20657;-69
2023/11/26 03:25:50;;;;;;;14.73;6.37;;;;;;;;;;5019635;28;20195;-69
2023/11/26 03:28:16;;;;;;;14.87;6.33;;;;;;;;;;5046253;28;20229;-68
2023/11/26 03:30:41;;;;;;;15.03;6.63;;;;;;;;;;5029626;28;20212;-69
2023/11/26 03:33:08;;;;;;;19.30;7.40;;;;;;;;;;5018668;28;20717;-69
2023/11/26 03:35:33;;;;;;;13.03;6.40;;;;;;;;;;5027229;28;20555;-69
2023/11/26 03:37:58;;;;;;;18.20;7.57;;;;;;;;;;5025229;28;20191;-68
2023/11/26 03:40:24;;;;;;;18.80;6.47;;;;;;;;;;5023269;28;20664;-69
2023/11/26 03:42:50;;;;;;;13.70;6.70;;;;;;;;;;5017307;28;21402;-69
2023/11/26 03:45:16;;;;;;;19.20;7.00;;;;;;;;;;5010238;28;20221;-69
2023/11/26 03:47:42;;;;;;;19.97;6.50;;;;;;;;;;5030502;28;20197;-69
2023/11/26 03:50:12;;;;;;;10.37;5.40;;;;;;;;;;5041435;28;20227;-69
2023/11/26 03:52:39;;;;;;;20.50;6.57;;;;;;;;;;5048275;28;20602;-69
2023/11/26 03:55:06;;;;;;;18.97;6.27;;;;;;;;;;5035841;28;20311;-68
2023/11/26 03:57:31;;;;;;;23.67;6.60;;;;;;;;;;5034592;28;20193;-68
2023/11/26 03:59:57;;;;;;;14.43;6.30;;;;;;;;;;5029679;28;20210;-68
2023/11/26 04:02:23;;;;;;;19.80;6.63;;;;;;;;;;5030416;28;20195;-69
2023/11/26 04:04:51;;;;;;;17.03;6.87;;;;;;;;;;5022438;28;20275;-69
2023/11/26 04:07:20;;;;;;;17.50;6.73;;;;;;;;;;5016213;28;20700;-69
2023/11/26 04:09:47;;;;;;;17.80;6.07;;;;;;;;;;5015760;28;20186;-69
2023/11/26 04:12:13;;;;;;;23.57;7.00;;;;;;;;;;5013687;28;20234;-69
2023/11/26 04:14:52;;;;;;;15.63;6.97;;;;;;;;;;5015504;28;20213;-69
2023/11/26 04:17:18;;;;;;;15.97;7.10;;;;;;;;;;5018558;28;20190;-69
2023/11/26 04:19:43;;;;;;;18.60;6.47;;;;;;;;;;5035431;28;20232;-69
2023/11/26 04:22:08;;;;;;;17.20;5.93;;;;;;;;;;5024571;28;20198;-69
2023/11/26 04:24:34;;;;;;;16.47;5.83;;;;;;;;;;5026639;28;20225;-69
2023/11/26 04:27:00;;;;;;;22.93;6.10;;;;;;;;;;5035812;28;20224;-69
2023/11/26 04:29:26;;;;;;;18.47;6.30;;;;;;;;;;5036284;28;20190;-69
2023/11/26 04:31:52;;;;;;;18.53;6.10;;;;;;;;;;5035359;28;20716;-69
2023/11/26 04:34:18;;;;;;;19.27;6.10;;;;;;;;;;5029319;28;20198;-69
2023/11/26 04:36:44;;;;;;;22.10;6.80;;;;;;;;;;5018639;28;20186;-69
2023/11/26 04:39:09;;;;;;;18.53;6.20;;;;;;;;;;5031475;28;20250;-69
2023/11/26 04:41:35;;;;;;;20.07;5.77;;;;;;;;;;5038224;28;20201;-69
2023/11/26 04:44:00;;;;;;;15.13;5.90;;;;;;;;;;5024393;28;20507;-69
2023/11/26 04:46:26;;;;;;;11.93;5.97;;;;;;;;;;5024487;28;20280;-69
2023/11/26 04:48:52;;;;;;;24.97;7.53;;;;;;;;;;5018900;28;20669;-69
2023/11/26 04:51:18;;;;;;;15.93;5.80;;;;;;;;;;5045508;28;20186;-70
2023/11/26 04:53:43;;;;;;;20.83;5.97;;;;;;;;;;5024845;28;20681;-69
2023/11/26 04:56:09;;;;;;;15.80;6.07;;;;;;;;;;5042762;28;20648;-69
2023/11/26 04:58:34;;;;;;;15.57;5.43;;;;;;;;;;5028458;28;20208;-69
2023/11/26 05:01:01;;;;;;;14.27;5.70;;;;;;;;;;5034829;28;20267;-69
2023/11/26 05:03:27;;;;;;;14.67;6.13;;;;;;;;;;5045562;28;20224;-69
2023/11/26 05:05:54;;;;;;;16.67;6.37;;;;;;;;;;5026632;28;20278;-69
2023/11/26 05:08:20;;;;;;;14.23;5.63;;;;;;;;;;5013938;28;20472;-69
2023/11/26 05:10:45;;;;;;;15.50;6.17;;;;;;;;;;5012709;28;20258;-69
2023/11/26 05:13:11;;;;;;;15.83;6.40;;;;;;;;;;5021698;28;20190;-69
2023/11/26 05:15:37;;;;;;;13.33;5.90;;;;;;;;;;5042020;28;20259;-69
2023/11/26 05:18:02;;;;;;;16.30;5.83;;;;;;;;;;5030475;28;20214;-70
2023/11/26 05:20:29;;;;;;;16.63;5.77;;;;;;;;;;5049794;28;20217;-69
2023/11/26 05:22:56;;;;;;;15.43;5.47;;;;;;;;;;5037393;28;20197;-69
2023/11/26 05:25:21;;;;;;;18.13;5.83;;;;;;;;;;5041739;28;20263;-69
2023/11/26 05:27:47;;;;;;;16.10;5.53;;;;;;;;;;5039767;28;20193;-69
2023/11/26 05:30:12;;;;;;;18.87;5.60;;;;;;;;;;5025282;28;20656;-69
2023/11/26 05:32:38;;;;;;;14.57;5.63;;;;;;;;;;5033562;28;20194;-69
2023/11/26 05:35:12;;;;;;;12.90;5.50;;;;;;;;;;5043735;28;20298;-69
2023/11/26 05:37:40;;;;;;;18.23;5.27;;;;;;;;;;5023244;28;20629;-68
2023/11/26 05:40:07;;;;;;;12.50;5.33;;;;;;;;;;5022612;28;20248;-68
2023/11/26 05:42:32;;;;;;;13.07;5.20;;;;;;;;;;5031979;28;20217;-69
2023/11/26 05:44:58;;;;;;;18.90;5.30;;;;;;;;;;5031585;28;20241;-69
2023/11/26 05:47:23;;;;;;;16.43;6.00;;;;;;;;;;5046508;28;20594;-68
2023/11/26 05:49:49;;;;;;;19.13;5.20;;;;;;;;;;5031801;28;20242;-68
2023/11/26 05:52:14;;;;;;;14.83;5.57;;;;;;;;;;5013409;28;20194;-68
2023/11/26 05:54:39;;;;;;;13.50;5.40;;;;;;;;;;5031873;28;20191;-68
2023/11/26 05:57:05;;;;;;;14.03;5.20;;;;;;;;;;5038278;28;20197;-68
2023/11/26 05:59:30;;;;;;;19.40;5.30;;;;;;;;;;5038150;28;20225;-68
2023/11/26 06:01:55;;;;;;;18.07;5.20;;;;;;;;;;5027299;28;20217;-68
2023/11/26 06:04:22;;;;;;;15.70;4.80;;;;;;;;;;5024768;28;20206;-68
2023/11/26 06:06:47;;;;;;;16.27;5.10;;;;;;;;;;5022832;28;20217;-68
2023/11/26 06:09:12;;;;;;;16.30;4.43;;;;;;;;;;5017053;28;20654;-69
2023/11/26 06:11:38;;;;;;;17.37;5.27;;;;;;;;;;5050457;28;20249;-68
2023/11/26 06:14:03;;;;;;;19.67;4.73;;;;;;;;;;5041497;28;20305;-69
2023/11/26 06:16:29;;;;;;;11.03;4.13;;;;;;;;;;5032043;28;20209;-68
2023/11/26 06:18:54;;;;;;;20.40;4.93;;;;;;;;;;5024891;28;20236;-67
2023/11/26 06:21:19;;;;;;;15.27;4.80;;;;;;;;;;5024439;28;20233;-68
2023/11/26 06:23:45;;;;;;;10.53;4.47;;;;;;;;;;5037872;28;20189;-68
2023/11/26 06:26:19;;;;;;;16.47;4.93;;;;;;;;;;5051158;28;20197;-67
2023/11/26 06:28:44;;;;;;;18.53;4.70;;;;;;;;;;5027035;28;20190;-69
2023/11/26 06:31:18;;;;;;;11.93;4.87;;;;;;;;;;5028811;28;20236;-68
2023/11/26 06:33:44;;;;;;;12.77;4.77;;;;;;;;;;5027129;28;20228;-69
2023/11/26 06:36:16;;;;;;;22.70;6.07;;;;;;;;;;5030831;28;20213;-70
2023/11/26 06:38:41;;;;;;;10.50;4.87;;;;;;;;;;5030390;28;20369;-69
2023/11/26 06:41:07;;;;;;;16.03;4.77;;;;;;;;;;5029579;28;20218;-69
2023/11/26 06:43:33;;;;;;;17.77;4.93;;;;;;;;;;5027028;28;20186;-69
2023/11/26 06:45:58;;;;;;;11.90;4.50;;;;;;;;;;5018744;28;20187;-69
2023/11/26 06:48:24;;;;;;;12.70;4.37;;;;;;;;;;5027122;28;20196;-69
2023/11/26 06:50:49;;;;;;;22.23;4.57;;;;;;;;;;5030690;28;20190;-69
2023/11/26 06:53:14;;;;;;;14.03;4.23;;;;;;;;;;5029367;28;20194;-69
2023/11/26 06:55:40;;;;;;;14.50;4.63;;;;;;;;;;5028990;28;20205;-69
2023/11/26 06:58:06;;;;;;;16.97;4.97;;;;;;;;;;5045103;28;20220;-68
2023/11/26 07:00:32;;;;;;;16.03;4.20;;;;;;;;;;5038407;28;20217;-69
2023/11/26 07:02:58;;;;;;;12.97;4.47;;;;;;;;;;5015716;28;20182;-69
2023/11/26 07:05:24;;;;;;;8.63;4.40;;;;;;;;;;5019880;28;20210;-69
2023/11/26 07:07:49;;;;;;;15.47;4.90;;;;;;;;;;5031386;28;20190;-69
2023/11/26 07:10:15;;;;;;;16.53;4.37;;;;;;;;;;5029492;28;20273;-69
2023/11/26 07:12:40;;;;;;;13.80;4.10;;;;;;;;;;5034617;28;20235;-69
2023/11/26 07:15:06;;;;;;;20.20;3.90;;;;;;;;;;5034509;28;20225;-69
2023/11/26 07:17:32;;;;;;;17.23;4.33;;;;;;;;;;5034959;28;20284;-68
2023/11/26 07:19:57;;;;;;;15.17;4.13;;;;;;;;;;5030372;28;20206;-68
2023/11/26 07:22:23;;;;;;;18.23;4.90;;;;;;;;;;5030029;28;20253;-68
2023/11/26 07:24:48;;;;;;;14.00;3.90;;;;;;;;;;5021267;28;20217;-68
2023/11/26 07:27:14;;;;;;;10.23;4.23;;;;;;;;;;5026870;28;20514;-68
2023/11/26 07:29:40;;;;;;;15.17;4.13;;;;;;;;;;5031190;28;20259;-69
2023/11/26 07:32:06;;;;;;;13.90;4.20;;;;;;;;;;5032987;28;20280;-69
2023/11/26 07:34:32;;;;;;;15.27;4.43;;;;;;;;;;5028037;28;20277;-69
2023/11/26 07:36:57;;;;;;;10.30;3.87;;;;;;;;;;5037114;28;20185;-69
2023/11/26 07:39:23;;;;;;;14.40;4.00;;;;;;;;;;5040141;28;20190;-69
2023/11/26 07:41:48;;;;;;;14.07;4.60;;;;;;;;;;5035462;28;20240;-69
2023/11/26 07:44:14;;;;;;;16.60;4.30;;;;;;;;;;5037766;28;20182;-69
2023/11/26 07:46:40;;;;;;;17.90;4.07;;;;;;;;;;5040219;28;20499;-69
2023/11/26 07:49:06;;;;;;;15.87;3.73;;;;;;;;;;5035705;28;20456;-69
2023/11/26 07:51:32;;;;;;;13.20;4.30;;;;;;;;;;5031309;28;20233;-69
2023/11/26 07:53:57;;;;;;;13.80;3.63;;;;;;;;;;5037243;28;20190;-69
2023/11/26 07:56:22;;;;;;;16.93;3.10;;;;;;;;;;5039729;28;20202;-69
2023/11/26 07:58:48;;;;;;;16.30;3.57;;;;;;;;;;5029528;28;20567;-69
2023/11/26 08:01:13;;;;;;;8.83;2.40;;;;;;;;;;5028027;28;20212;-69
2023/11/26 08:03:39;;;;;;;12.93;3.03;;;;;;;;;;5034390;28;20670;-69
2023/11/26 08:06:06;;;;;;;12.17;3.10;;;;;;;;;;5034860;28;20582;-70
2023/11/26 08:08:40;;;;;;;11.03;2.80;;;;;;;;;;5038712;28;20182;-69
2023/11/26 08:11:07;;;;;;;11.13;2.70;;;;;;;;;;5039028;28;20292;-69
2023/11/26 08:13:37;;;;;;;13.20;2.83;;;;;;;;;;5038367;28;20186;-69
2023/11/26 08:16:07;;;;;;;6.57;2.60;;;;;;;;;;5034154;28;20189;-69
2023/11/26 08:18:33;;;;;;;13.53;2.90;;;;;;;;;;5036793;28;20668;-69
2023/11/26 08:21:03;;;;;;;12.67;2.83;;;;;;;;;;5033802;28;20287;-69
2023/11/26 08:23:30;;;;;;;14.43;2.63;;;;;;;;;;5037459;28;20294;-69
2023/11/26 08:25:58;;;;;;;15.73;2.60;;;;;;;;;;5033498;28;20541;-69
2023/11/26 08:28:28;;;;;;;14.30;2.87;;;;;;;;;;5021459;28;20186;-69
2023/11/26 08:30:54;;;;;;;7.70;2.30;;;;;;;;;;5032081;28;20188;-69
2023/11/26 08:33:22;;;;;;;10.27;2.37;;;;;;;;;;5031138;28;20643;-69
2023/11/26 08:35:51;;;;;;;6.77;2.50;;;;;;;;;;5023810;28;20282;-69
2023/11/26 08:38:16;;;;;;;12.53;2.50;;;;;;;;;;5028877;28;20193;-69
2023/11/26 08:40:42;;;;;;;7.97;2.20;;;;;;;;;;5031538;28;20220;-69
2023/11/26 08:43:10;;;;;;;17.93;3.07;;;;;;;;;;5025785;28;20285;-69
2023/11/26 08:45:41;;;;;;;13.67;2.70;;;;;;;;;;5025519;28;20219;-69
2023/11/26 08:48:07;;;;;;;13.43;2.90;;;;;;;;;;5023490;28;20682;-69
2023/11/26 08:50:39;;;;;;;12.30;2.80;;;;;;;;;;5029635;28;21198;-69
2023/11/26 08:53:06;;;;;;;12.90;2.90;;;;;;;;;;5029107;28;20335;-69
2023/11/26 08:55:35;;;;;;;11.93;3.43;;;;;;;;;;5020634;28;20249;-69
2023/11/26 08:58:01;;;;;;;11.43;2.97;;;;;;;;;;5032437;28;20213;-69
2023/11/26 09:00:27;;;;;;;9.10;3.40;;;;;;;;;;5029652;28;20221;-69
2023/11/26 09:02:52;;;;;;;13.17;3.30;;;;;;;;;;5019835;28;20192;-69
2023/11/26 09:05:18;;;;;;;18.20;3.70;;;;;;;;;;5041531;28;20189;-69
2023/11/26 09:07:45;;;;;;;11.57;3.90;;;;;;;;;;5029811;28;20198;-69
2023/11/26 09:10:13;;;;;;;13.03;4.27;;;;;;;;;;5036832;28;20240;-69
2023/11/26 09:12:39;;;;;;;11.10;3.83;;;;;;;;;;5022093;28;20304;-69
2023/11/26 09:15:07;;;;;;;16.90;3.97;;;;;;;;;;5031057;28;20696;-69
2023/11/26 09:17:33;;;;;;;9.90;3.30;;;;;;;;;;5016356;28;20202;-69
2023/11/26 09:19:59;;;;;;;10.23;3.27;;;;;;;;;;5037832;28;20194;-69
2023/11/26 09:22:24;;;;;;;13.30;3.03;;;;;;;;;;5027676;28;20641;-69
2023/11/26 09:24:50;;;;;;;11.03;3.27;;;;;;;;;;5028769;28;20183;-69
2023/11/26 09:27:15;;;;;;;9.43;3.67;;;;;;;;;;5018354;28;20228;-69
2023/11/26 09:29:41;;;;;;;16.83;2.70;;;;;;;;;;5027294;28;20189;-69
2023/11/26 09:32:07;;;;;;;12.67;3.00;;;;;;;;;;5021958;28;20191;-69
2023/11/26 09:34:32;;;;;;;15.47;3.73;;;;;;;;;;5035009;28;20178;-69
2023/11/26 09:37:04;;;;;;;13.67;3.93;;;;;;;;;;5039619;28;20561;-69
2023/11/26 09:39:30;;;;;;;11.83;3.63;;;;;;;;;;5039706;28;20508;-69
2023/11/26 09:41:57;;;;;;;8.83;2.60;;;;;;;;;;5036631;28;20194;-69
2023/11/26 09:44:22;;;;;;;17.13;3.70;;;;;;;;;;5032229;28;20185;-69
2023/11/26 09:46:50;;;;;;;13.87;3.30;;;;;;;;;;5026569;28;20186;-69
2023/11/26 09:49:15;;;;;;;10.60;3.30;;;;;;;;;;5036271;28;20244;-71
2023/11/26 09:51:41;;;;;;;13.40;3.60;;;;;;;;;;5034835;28;20183;-69
2023/11/26 09:54:06;;;;;;;11.47;3.00;;;;;;;;;;5027060;28;20195;-69
2023/11/26 09:56:33;;;;;;;12.10;2.47;;;;;;;;;;4344760;28;10000833;-69
2023/11/26 09:58:58;;;;;;;13.83;2.80;;;;;;;;;;5017192;28;20402;-69
2023/11/26 10:01:24;;;;;;;9.37;3.87;;;;;;;;;;5053315;28;20312;-70
2023/11/26 10:04:00;;;;;;;9.77;2.43;;;;;;;;;;5032876;28;20290;-69
2023/11/26 10:06:26;;;;;;;13.87;2.83;;;;;;;;;;5037618;28;20314;-69
2023/11/26 10:08:52;;;;;;;11.00;2.50;;;;;;;;;;5029194;28;20512;-69
2023/11/26 10:11:26;;;;;;;11.97;2.60;;;;;;;;;;5023237;28;20241;-69
2023/11/26 10:13:53;;;;;;;12.10;2.70;;;;;;;;;;5027565;28;20178;-68
2023/11/26 10:16:33;;;;;;;7.13;2.40;;;;;;;;;;5029418;28;20684;-67
2023/11/26 10:19:00;;;;;;;9.47;2.53;;;;;;;;;;5029168;28;21362;-67
2023/11/26 10:21:26;;;;;;;11.40;2.40;;;;;;;;;;5031334;28;20692;-68
2023/11/26 10:23:51;;;;;;;7.67;2.20;;;;;;;;;;5032532;28;20272;-67
2023/11/26 10:26:22;;;;;;;7.03;2.28;;;;;;;;;;5033930;28;20193;-68
2023/11/26 10:29:07;;;;;;;10.07;2.07;;;;;;;;;;5034345;28;20193;-67
2023/11/26 10:31:33;;;;;;;7.50;2.05;;;;;;;;;;5035276;28;20217;-68
2023/11/26 10:34:09;;;;;;;10.20;2.30;;;;;;;;;;5025069;28;20208;-68
2023/11/26 10:36:35;;;;;;;11.43;2.17;;;;;;;;;;5013780;28;20195;-69
2023/11/26 10:39:04;;;;;;;9.68;2.50;;;;;;;;;;5030795;28;20189;-68
2023/11/26 10:41:37;;;;;;;8.88;1.80;;;;;;;;;;5032603;28;20213;-68
2023/11/26 10:44:04;;;;;;;10.65;2.03;;;;;;;;;;5031639;28;20262;-68
2023/11/26 10:46:33;;;;;;;9.38;2.28;;;;;;;;;;5018674;28;20194;-68
2023/11/26 10:49:18;;;;;;;11.85;2.13;;;;;;;;;;5028270;28;20281;-68
2023/11/26 10:52:20;;;;;;;10.68;2.08;;;;;;;;;;5018755;28;20185;-68
2023/11/26 10:55:08;;;;;;;14.02;3.28;;;;;;;;;;5020212;28;20210;-67
2023/11/26 10:57:41;;;;;;;10.18;2.17;;;;;;;;;;5029506;28;20194;-68
2023/11/26 11:00:24;;;;;;;8.73;1.80;;;;;;;;;;5032752;28;20228;-68
2023/11/26 11:02:49;;;;;;;11.18;2.28;;;;;;;;;;5032835;28;20265;-68
2023/11/26 11:05:16;;;;;;;11.50;2.05;;;;;;;;;;5024625;28;20255;-68
2023/11/26 11:07:43;;;;;;;10.80;2.08;;;;;;;;;;5027274;28;20520;-68
2023/11/26 11:10:42;;;;;;;6.93;1.77;;;;;;;;;;5028769;28;20338;-67
2023/11/26 11:13:15;;;;;;;13.32;2.10;;;;;;;;;;5029169;28;20279;-67
2023/11/26 11:15:41;;;;;;;8.70;1.80;;;;;;;;;;5032995;28;20672;-67
2023/11/26 11:18:40;;;;;;;10.45;2.40;;;;;;;;;;5017417;28;20578;-68
2023/11/26 11:21:10;;;;;;;10.00;2.08;;;;;;;;;;5011488;28;20237;-68
2023/11/26 11:23:38;;;;;;;14.73;2.22;;;;;;;;;;5024008;28;20209;-68
2023/11/26 11:26:05;;;;;;;12.02;2.03;;;;;;;;;;5021601;28;20198;-67
2023/11/26 11:28:41;;;;;;;11.07;1.83;;;;;;;;;;5030733;28;20244;-67
2023/11/26 11:31:09;;;;;;;5.95;1.60;;;;;;;;;;5031328;28;20193;-68
2023/11/26 11:33:34;;;;;;;7.35;1.80;;;;;;;;;;5030146;28;20269;-68
2023/11/26 11:36:03;;;;;;;10.55;2.35;;;;;;;;;;5030773;28;20292;-68
2023/11/26 11:38:30;;;;;;;9.45;1.90;;;;;;;;;;5030007;28;20227;-67
2023/11/26 11:41:09;;;;;;;10.85;1.70;;;;;;;;;;5034900;28;20198;-67
2023/11/26 11:43:41;;;;;;;9.38;1.30;;;;;;;;;;5032835;28;20180;-67
2023/11/26 11:46:28;;;;;;;11.32;1.90;;;;;;;;;;5025006;28;20270;-67
2023/11/26 11:48:59;;;;;;;13.98;2.67;;;;;;;;;;5019091;28;20195;-67
2023/11/26 11:51:40;;;;;;;8.57;1.67;;;;;;;;;;5029733;28;20188;-67
2023/11/26 11:54:08;;;;;;;10.68;1.35;;;;;;;;;;5031033;28;20213;-67
2023/11/26 11:56:36;;;;;;;8.57;1.38;;;;;;;;;;5033330;28;20508;-67
2023/11/26 11:59:02;;;;;;;7.97;2.08;;;;;;;;;;5035609;28;20182;-67
2023/11/26 12:01:28;;;;;;;9.50;2.13;;;;;;;;;;5036167;28;20216;-67
2023/11/26 12:04:00;;;;;;;11.90;1.92;;;;;;;;;;5033959;28;20862;-67
2023/11/26 12:06:28;;;;;;;8.60;2.35;;;;;;;;;;5030955;28;20197;-67
2023/11/26 12:09:01;;;;;;;8.23;2.03;;;;;;;;;;5030260;28;20197;-66
2023/11/26 12:11:27;;;;;;;7.30;1.65;;;;;;;;;;5034329;28;20927;-67
2023/11/26 12:13:53;;;;;;;10.73;2.13;;;;;;;;;;5037056;28;20273;-66
2023/11/26 12:16:19;;;;;;;6.70;1.35;;;;;;;;;;5037456;28;20183;-67
2023/11/26 12:18:45;;;;;;;11.52;1.40;;;;;;;;;;5032192;28;20216;-66
2023/11/26 12:21:13;;;;;;;7.38;1.30;;;;;;;;;;5035993;28;20668;-66
2023/11/26 12:23:39;;;;;;;7.45;1.65;;;;;;;;;;5030318;28;20533;-67
2023/11/26 12:26:05;;;;;;;6.70;1.63;;;;;;;;;;5034460;28;20193;-66
2023/11/26 12:28:45;;;;;;;9.50;1.40;;;;;;;;;;5040105;28;20185;-66
2023/11/26 12:31:10;;;;;;;10.40;1.80;;;;;;;;;;5034571;28;20280;-66
2023/11/26 12:33:45;;;;;;;12.70;1.83;;;;;;;;;;5040875;28;20578;-67
2023/11/26 12:36:12;;;;;;;10.32;1.25;;;;;;;;;;5029202;28;20200;-67
2023/11/26 12:38:39;;;;;;;12.52;1.55;;;;;;;;;;5033055;28;20265;-66
2023/11/26 12:41:07;;;;;;;10.88;1.80;;;;;;;;;;5035907;28;20202;-66
2023/11/26 12:43:32;;;;;;;9.38;1.58;;;;;;;;;;5024347;28;20502;-67
2023/11/26 12:46:11;;;;;;;10.73;1.52;;;;;;;;;;5048027;28;20620;-67
2023/11/26 12:48:38;;;;;;;8.85;1.20;;;;;;;;;;5019680;28;20668;-67
2023/11/26 12:51:04;;;;;;;5.97;1.23;;;;;;;;;;5025118;28;20236;-66
2023/11/26 12:53:30;;;;;;;10.50;1.70;;;;;;;;;;5016952;28;20287;-67
2023/11/26 12:55:55;;;;;;;8.48;1.40;;;;;;;;;;5026561;28;20258;-67
2023/11/26 12:58:23;;;;;;;9.27;1.58;;;;;;;;;;5022694;28;20193;-67
2023/11/26 13:00:51;;;;;;;11.32;1.33;;;;;;;;;;5028440;28;20241;-67
2023/11/26 13:03:20;;;;;;;8.05;1.30;;;;;;;;;;5021554;28;20194;-67
2023/11/26 13:05:47;;;;;;;10.95;1.70;;;;;;;;;;5019901;28;20506;-67
2023/11/26 13:08:23;;;;;;;8.75;1.40;;;;;;;;;;5023251;28;20197;-66
2023/11/26 13:10:53;;;;;;;8.95;1.40;;;;;;;;;;5041473;28;20232;-67
2023/11/26 13:13:31;;;;;;;5.70;1.55;;;;;;;;;;5030983;28;20185;-67
2023/11/26 13:15:58;;;;;;;6.05;1.20;;;;;;;;;;5020948;28;20673;-67
2023/11/26 13:18:25;;;;;;;11.60;2.22;;;;;;;;;;5012579;28;20250;-67
2023/11/26 13:20:51;;;;;;;9.20;2.00;;;;;;;;;;5024038;28;20210;-67
2023/11/26 13:23:22;;;;;;;6.90;1.33;;;;;;;;;;5027157;28;20661;-67
2023/11/26 13:25:51;;;;;;;12.27;1.40;;;;;;;;;;5031274;28;20277;-67
2023/11/26 13:28:21;;;;;;;6.55;1.30;;;;;;;;;;5020846;28;20205;-67
2023/11/26 13:30:47;;;;;;;12.75;2.00;;;;;;;;;;5039275;28;20637;-67
2023/11/26 13:33:14;;;;;;;11.45;1.63;;;;;;;;;;5037932;28;20471;-67
2023/11/26 13:35:41;;;;;;;9.75;1.85;;;;;;;;;;5033395;28;20197;-67
2023/11/26 13:38:07;;;;;;;8.52;1.65;;;;;;;;;;5031981;28;20189;-67
2023/11/26 13:40:37;;;;;;;18.40;2.38;;;;;;;;;;5028153;28;20233;-67
2023/11/26 13:43:08;;;;;;;7.70;1.77;;;;;;;;;;5031711;28;20232;-67
2023/11/26 13:45:36;;;;;;;9.80;2.00;;;;;;;;;;5028352;28;20227;-67
2023/11/26 13:48:02;;;;;;;14.00;2.30;;;;;;;;;;5033214;28;20273;-67
2023/11/26 13:50:31;;;;;;;13.73;2.05;;;;;;;;;;5037023;28;20193;-67
2023/11/26 13:52:57;;;;;;;10.65;2.13;;;;;;;;;;5029430;28;20235;-67
2023/11/26 13:55:23;;;;;;;9.98;2.20;;;;;;;;;;5028296;28;20239;-67
2023/11/26 13:57:49;;;;;;;11.65;2.60;;;;;;;;;;5038576;28;20261;-67
2023/11/26 14:00:15;;;;;;;11.03;1.87;;;;;;;;;;5031381;28;20708;-67
2023/11/26 14:02:41;;;;;;;14.60;2.25;;;;;;;;;;5016456;28;20273;-67
2023/11/26 14:05:11;;;;;;;10.27;2.23;;;;;;;;;;5015616;28;20269;-67
2023/11/26 14:07:41;;;;;;;10.50;2.28;;;;;;;;;;5017285;28;20260;-67
2023/11/26 14:10:15;;;;;;;14.65;2.58;;;;;;;;;;5030235;28;20271;-67
2023/11/26 14:12:42;;;;;;;11.73;2.70;;;;;;;;;;5026530;28;20312;-67
2023/11/26 14:15:12;;;;;;;15.73;2.85;;;;;;;;;;5033325;28;20253;-67
2023/11/26 14:17:41;;;;;;;11.45;2.95;;;;;;;;;;5035613;28;20244;-66
2023/11/26 14:20:16;;;;;;;10.07;2.67;;;;;;;;;;5028998;28;20237;-66
2023/11/26 14:22:47;;;;;;;13.57;2.80;;;;;;;;;;5024238;28;20231;-67
2023/11/26 14:25:14;;;;;;;11.48;2.33;;;;;;;;;;5029947;28;20650;-67
2023/11/26 14:27:41;;;;;;;10.75;2.08;;;;;;;;;;5028898;28;20189;-67
2023/11/26 14:30:07;;;;;;;13.03;3.00;;;;;;;;;;5029508;28;20667;-68
2023/11/26 14:32:32;;;;;;;8.52;2.13;;;;;;;;;;5034035;28;20186;-68
2023/11/26 14:34:57;;;;;;;14.57;2.20;;;;;;;;;;5025736;28;20633;-69
2023/11/26 14:37:23;;;;;;;16.95;2.60;;;;;;;;;;5027332;28;20193;-68